Cerro Moreno Airport
SCFA : rendu visible

Aérodrome :











RETROUVEZ-NOUS SUR...

 
LOGIN :

S'inscrire | Disclaimer

   EN    FR    IT 

 









Légende :    VFR   VFR Marginal   IFR   IFR Intensif   IFR Très Intensif
Visi : 
Plafond : 
>= 8 km
>= 3000ft
5 à 8 km
1000 à 3000 ft
1500m à 5 km
500 à 1000 ft
800 à 1500m
200 à 500 ft
< 800m
< 200 ft
Symboles :   Orages  Brouillard  Fortes neiges  Fortes précipitations  Vent > 20 kt






- Altitude de l'aérodrome : 455 ft
- Code IATA : ANF


SCFA - Cerro Moreno

DERNIER METAR :
  • 301000Z 13003KT 9999 BKN005 15/14 Q1013 NOSIG

METARs EXPIRÉS :
  • 300900Z 16003KT 9999 FEW007 16/15 Q1013 NOSIG
  • 300800Z 19003KT 9999 SCT009 16/15 Q1013 NOSIG

TAF TAF SCFA
Valide du 30 à 06h jusqu'au 31 à 06h UTC


300430Z 3006/3106 19004KT 9999 BKN010 TN15/3009Z TX20/3016Z
BECMG 3015/3017 22012KT FEW020 SCT300
BECMG 3100/3102 19004KT
BECMG 3104/3106 BKN010



MET'MAP, la Météo Aéronautique d'un coup d'oeil ! - Copyright ORBIFLY Décembre 2007 - Disclaimer

ORBIFLY MET'MAP TEAM :

Programmation & Développement : Alexandra Zaïnal
Sur une idée originale de : Baudouin d'Aumeries
Assistance à la programmation : Marc-Olivier Méhu
Soutien technique & logistique : Manuel Goepfert

Contact : metmap@orbifly.com




SOURCES & CREDITS :

   NOAA       Earth
Advisory